Nearby METAR Reports

 

KHCR - Heber/Russ Mcdon, Utah, USA
Distance from station: SSW 18mi, 29km
Updated: Sat, 21-Sep-2019 9:55am MDT
Partly cloudy
Partly cloudy
 Wind from calm
Wind: Calm
Temperature: 39°F , 4°C
Dew Point: 37°F , 3°C
Humidity: 93%
Barometer: 30.21 inHg , 1023 hPa
Clouds: Partly cloudy
Visibility: 10 miles , 16 km
Cloud details: Partly cloudy 400 ft
2019/09/21 15:55 KHCR 211555Z AUTO 00000KT 10SM SCT004 04/03 A3021 RMK AO2
KSLC - Salt Lake City, Utah, USA
Distance from station: W 35mi, 57km
Updated: Sat, 21-Sep-2019 9:54am MDT
Partly cloudy
Partly cloudy
 Wind from SE
Wind: SE 8 mph , 13 km/h
Temperature: 54°F , 12°C
Dew Point: 43°F , 6°C
Humidity: 67%
Barometer: 30.18 inHg , 1022 hPa
Clouds: Partly cloudy
Visibility: 10 miles , 16 km
Cloud details: Few Clouds 4300 ft
Few Clouds 5500 ft
Partly cloudy 7000 ft
2019/09/21 15:54 KSLC 211554Z 14007KT 10SM FEW043 FEW055 SCT070 12/06 A3018 RMK AO2 SLP200 T01220056
 
KU42 - Salt Lake Muni, Utah, USA
Distance from station: WSW 37mi, 59km
Updated: Sat, 21-Sep-2019 9:55am MDT
Clear
Clear
 Wind from SE
Wind: SE 3 mph , 6 km/h
Temperature: 52°F , 11°C
Dew Point: 45°F , 7°C
Humidity: 77%
Barometer: 30.20 inHg , 1022.7 hPa
Clouds: Clear
Visibility: 10 miles , 16 km
2019/09/21 15:55 KU42 211555Z AUTO 13003KT 10SM CLR 11/07 A3020 RMK AO1 T01100070
KEVW - Evanston, Wyoming, USA
Distance from station: NNE 40mi, 64km
Updated: Sat, 21-Sep-2019 9:53am MDT
Partly cloudy
Partly cloudy
 Wind from SW
Wind: SW 12 mph , 19 km/h
Temperature: 45°F , 7°C
Wind Chill: 39°F , 4°C
Dew Point: 36°F , 2°C
Humidity: 71%
Barometer: 30.22 inHg , 1023.4 hPa
Clouds: Partly cloudy
Visibility: 10 miles , 16 km
Cloud details: Partly cloudy 5500 ft
2019/09/21 15:53 KEVW 211553Z AUTO 23010KT 10SM SCT055 07/02 A3022 RMK AO2 SLP206 T00670017
 
KPVU - Provo Muni, Utah, USA
Distance from station: SSW 41mi, 67km
Updated: Sat, 21-Sep-2019 9:58am MDT
Partly cloudy
Partly cloudy
 Wind from SE
Wind: SE 5 mph , 7 km/h
Temperature: 50°F , 10°C
Wind Chill: 48°F , 9°C
Dew Point: 41°F , 5°C
Humidity: 71%
Barometer: 30.22 inHg , 1023.4 hPa
Clouds: Partly cloudy
Visibility: 10 miles , 16 km
Cloud details: Few Clouds 2000 ft
Partly cloudy 18000 ft
2019/09/21 15:58 KPVU 211558Z COR 14004KT 10SM FEW020 SCT180 10/05 A3022 RMK AO2 SLP221 T01000050
KHIF - Hill Afb/Ogden, Utah, USA
Distance from station: NW 45mi, 72km
Updated: Sat, 21-Sep-2019 9:58am MDT
Clear
Clear
 Wind from ENE
Wind: ENE 6 mph , 9 km/h
Temperature: 50°F , 10°C
Wind Chill: 48°F , 9°C
Dew Point: 41°F , 5°C
Humidity: 71%
Barometer: 30.19 inHg , 1022.4 hPa
Clouds: Clear
Visibility: 10 miles , 16 km
2019/09/21 15:58 KHIF 211558Z AUTO 07005KT 10SM CLR 10/05 A3019 RMK AO2 SLP205 T01010053
 
KOGD - Ogden, Utah, USA
Distance from station: NW 50mi, 81km
Updated: Sat, 21-Sep-2019 9:53am MDT
Few Clouds
Few Clouds
 Wind from S
Wind: S 7 mph , 11 km/h
Temperature: 52°F , 11°C
Dew Point: 41°F , 5°C
Humidity: 67%
Barometer: 30.18 inHg , 1022 hPa
Clouds: Few Clouds
Visibility: 10 miles , 16 km
Cloud details: Few Clouds 9000 ft
2019/09/21 15:53 KOGD 211553Z 17006KT 10SM FEW090 11/05 A3018 RMK AO2 SLP201 T01110050